Asotin, WA

8:44 PM PST on December 18, 2014 (GMT -0800)
Walla Walla Regional | Change Station
CLOSE
Current Station
Airport
Location: Walla Walla,
Elevation: 1204 ft
Nearby Weather Stations

Elev 1204 ft 46.09 °N, 118.29 °W | Updated 51 minutes ago

Overcast
Overcast
39 °F
Feels Like 35 °F
N
6
Wind Variable Wind from East

Today
High -- | Low -- °F
--% Chance of Precip.
Yesterday
High -- | Low -- °F
Precip. -- in
7:26 AM 4:02 PM
Waning Crescent, 10% visible
Pressure 29.95 in
Visibility 4.0 miles
Clouds Scattered Clouds 10000 ft
Windchill 35 °F
Dew Point 38 °F
Humidity 96%
Rainfall 0.00 in
Snow Depth Not available.
UV 0 out of 12
Pollen .10 out of 12
Air Quality Not available.
Flu Activity Not available.
METAR KALW 190353Z AUTO 08005KT 4SM BR SCT100 04/03 A2992 RMK AO2 SLP140 T00390033

More Conditions Fewer Conditions

Pressure 29.95 in
Visibility 4.0 miles
Clouds Scattered Clouds 10000 ft
Windchill 35 °F
Dew Point 38 °F
Humidity 96%
Rainfall 0.00 in
Snow Depth Not available.
UV 0 out of 12
Pollen .10 out of 12
Air Quality Not available.
Flu Activity Not available.
METAR KALW 190353Z AUTO 08005KT 4SM BR SCT100 04/03 A2992 RMK AO2 SLP140 T00390033

More Conditions Fewer Conditions

10-Day Weather Forecast

Almanac

Astronomy

Dec. 18, 2014 Rise Set
Actual Time
Civil Twilight
Nautical Twilight
Astronomical Twilight
Moon
Length of Visible Light
Length of Day
Tomorrow will be .
, % of the Moon is Illuminated

Today's Extremes

State Highs State Lows

Community

WunderPhotos

Upload Photos

1,778,960 photos uploaded!

WunderBlogs® & News

Nearby

Air Quality

  Air Quality AQ Index Pollutant
Not available.

Snow Depth

Station Depth Elevation

Earthquake Activity

City Distance Mag. Time & Date
Minimum magnitude displayed is 2.5.

Coastal Water Temperatures

Place Temperature

Nearby Weather Stations